Time;durP1;ratioP1;P1;durP2;ratioP2;P2;SDS_P1;SDS_P2;PMS_P1;PMS_P2;Temp;Humidity;BMP_temperature;BMP_pressure;BME280_temperature;BME280_humidity;BME280_pressure;Samples;Min_cycle;Max_cycle;Signal;HPM_P1;HPM_P2
2022/04/29 00:01:43;;;;;;;7.18;6.13;;;;;;;-139.48;100.00;61774.03;4979858;28;20165;-70
2022/04/29 00:04:27;;;;;;;6.70;5.88;;;;;;;-139.48;100.00;61774.03;4965755;28;20129;-70
2022/04/29 00:07:12;;;;;;;6.80;6.07;;;;;;;-139.48;100.00;61774.03;4994517;28;20444;-70
2022/04/29 00:09:56;;;;;;;6.93;6.00;;;;;;;-139.48;100.00;61774.03;4994030;28;20052;-70
2022/04/29 00:12:41;;;;;;;7.00;6.25;;;;;;;-139.48;100.00;61774.03;4979452;28;20410;-70
2022/04/29 00:15:25;;;;;;;7.95;6.28;;;;;;;-139.48;100.00;61774.03;4965925;28;20114;-70
2022/04/29 00:18:10;;;;;;;6.68;5.93;;;;;;;-139.48;100.00;61774.03;4994132;28;20602;-70
2022/04/29 00:20:54;;;;;;;10.60;6.43;;;;;;;-139.48;100.00;61774.03;4979444;28;20053;-70
2022/04/29 00:23:38;;;;;;;8.00;6.90;;;;;;;-139.48;100.00;61774.03;4993850;28;20426;-70
2022/04/29 00:26:21;;;;;;;11.00;6.40;;;;;;;-139.48;100.00;61774.03;4994002;28;20402;-70
2022/04/29 00:29:06;;;;;;;7.88;5.97;;;;;;;-139.48;100.00;61774.03;4979584;28;20125;-70
2022/04/29 00:31:51;;;;;;;12.15;6.22;;;;;;;-139.48;100.00;61774.03;4994065;28;20467;-69
2022/04/29 00:34:35;;;;;;;8.32;6.15;;;;;;;-139.48;100.00;61774.03;4979032;28;20049;-70
2022/04/29 00:37:18;;;;;;;11.30;6.60;;;;;;;-139.48;100.00;61774.03;4978920;28;20529;-70
2022/04/29 00:40:03;;;;;;;12.35;6.38;;;;;;;-139.48;100.00;61774.03;4993960;28;20127;-70
2022/04/29 00:42:47;;;;;;;8.65;6.30;;;;;;;-139.48;100.00;61774.03;4978896;28;20462;-70
2022/04/29 00:45:31;;;;;;;8.98;6.20;;;;;;;-139.48;100.00;61774.03;4979210;28;20092;-70
2022/04/29 00:48:14;;;;;;;7.13;5.85;;;;;;;-139.48;100.00;61774.03;4978757;28;20445;-70
2022/04/29 00:50:58;;;;;;;11.80;6.40;;;;;;;-139.48;100.00;61774.03;4965252;28;20057;-70
2022/04/29 00:53:42;;;;;;;8.68;6.55;;;;;;;-139.48;100.00;61774.03;4996001;28;20050;-70
2022/04/29 00:56:28;;;;;;;8.15;6.25;;;;;;;-139.48;100.00;61774.03;4982623;28;20108;-70
2022/04/29 00:59:40;;;;;;;9.15;6.65;;;;;;;-139.48;100.00;61774.03;4982824;28;20180;-70
2022/04/29 01:02:24;;;;;;;10.90;6.75;;;;;;;-139.48;100.00;61774.03;4982931;28;20046;-70
2022/04/29 01:05:11;;;;;;;10.30;6.05;;;;;;;-139.48;100.00;61774.03;4997568;28;20101;-70
2022/04/29 01:07:55;;;;;;;12.23;6.82;;;;;;;-139.48;100.00;61774.03;4982591;28;20101;-70
2022/04/29 01:10:38;;;;;;;9.90;7.40;;;;;;;-139.48;100.00;61774.03;4982425;28;20537;-70
2022/04/29 01:13:22;;;;;;;9.88;6.88;;;;;;;-139.48;100.00;61774.03;4968726;28;20110;-70
2022/04/29 01:16:08;;;;;;;11.40;6.25;;;;;;;-139.48;100.00;61774.03;4982242;28;20556;-70
2022/04/29 01:18:53;;;;;;;8.13;6.85;;;;;;;-139.48;100.00;61774.03;4997268;28;20100;-70
2022/04/29 01:21:37;;;;;;;7.07;5.80;;;;;;;-139.48;100.00;61774.03;4997266;28;20129;-70
2022/04/29 01:24:20;;;;;;;9.13;7.00;;;;;;;-139.48;100.00;61774.03;4982399;28;20045;-70
2022/04/29 01:27:10;;;;;;;13.20;6.93;;;;;;;-139.48;100.00;61774.03;4996969;28;20050;-70
2022/04/29 01:30:03;;;;;;;9.55;7.63;;;;;;;-139.48;100.00;61774.03;4982478;28;20045;-70
2022/04/29 01:32:47;;;;;;;6.77;5.50;;;;;;;-139.48;100.00;61774.03;4996959;28;20053;-70
2022/04/29 01:35:31;;;;;;;11.45;8.27;;;;;;;-139.48;100.00;61774.03;4997245;28;20267;-70
2022/04/29 01:38:15;;;;;;;10.38;7.70;;;;;;;-139.48;100.00;61774.03;4968441;28;20124;-70
2022/04/29 01:40:59;;;;;;;12.77;7.57;;;;;;;-139.48;100.00;61774.03;4981840;28;20057;-70
2022/04/29 01:43:43;;;;;;;8.00;7.20;;;;;;;-139.48;100.00;61774.03;4996853;28;20089;-70
2022/04/29 01:46:27;;;;;;;12.13;8.55;;;;;;;-139.48;100.00;61774.03;4991654;23;20104;-69
2022/04/29 01:49:11;;;;;;;11.35;8.18;;;;;;;-139.48;100.00;61774.03;4995928;28;20045;-69
2022/04/29 01:51:56;;;;;;;12.23;8.15;;;;;;;-139.48;100.00;61774.03;4981935;28;20478;-69
2022/04/29 01:54:39;;;;;;;10.25;7.75;;;;;;;-139.48;100.00;61774.03;4981992;28;20081;-69
2022/04/29 01:57:23;;;;;;;9.38;8.13;;;;;;;-139.48;100.00;61774.03;4982178;28;20049;-69
2022/04/29 02:00:07;;;;;;;13.05;7.93;;;;;;;-139.48;100.00;61774.03;4981573;28;20101;-69
2022/04/29 02:02:51;;;;;;;11.38;8.15;;;;;;;-139.48;100.00;61774.03;4981771;28;20128;-69
2022/04/29 02:05:35;;;;;;;8.52;7.38;;;;;;;-139.48;100.00;61774.03;4980937;28;20173;-69
2022/04/29 02:08:19;;;;;;;11.43;7.80;;;;;;;-139.48;100.00;61774.03;4967948;28;20096;-69
2022/04/29 02:11:03;;;;;;;11.52;7.72;;;;;;;-139.48;100.00;61774.03;4981654;28;20402;-69
2022/04/29 02:13:47;;;;;;;10.90;8.27;;;;;;;-139.48;100.00;61774.03;4981456;28;20473;-69
2022/04/29 02:16:31;;;;;;;10.23;8.00;;;;;;;-139.48;100.00;61774.03;4968025;28;20143;-69
2022/04/29 02:19:15;;;;;;;11.23;8.80;;;;;;;-139.48;100.00;61774.03;4981159;28;20127;-69
2022/04/29 02:21:59;;;;;;;11.57;8.27;;;;;;;-139.48;100.00;61774.03;4996197;28;20092;-69
2022/04/29 02:24:44;;;;;;;12.73;9.48;;;;;;;-139.48;100.00;61774.03;4995005;28;20045;-69
2022/04/29 02:27:28;;;;;;;13.52;9.07;;;;;;;-139.48;100.00;61774.03;4995628;28;20097;-69
2022/04/29 02:30:13;;;;;;;11.27;8.75;;;;;;;-139.48;100.00;61774.03;4981060;28;20052;-69
2022/04/29 02:32:57;;;;;;;12.70;9.00;;;;;;;-139.48;100.00;61774.03;4981085;28;20053;-69
2022/04/29 02:35:41;;;;;;;11.48;8.50;;;;;;;-139.48;100.00;61774.03;4995684;28;20155;-69
2022/04/29 02:38:25;;;;;;;13.02;9.32;;;;;;;-139.48;100.00;61774.03;4995505;28;20045;-69
2022/04/29 02:41:08;;;;;;;14.10;9.43;;;;;;;-139.48;100.00;61774.03;4995747;28;20118;-69
2022/04/29 02:43:52;;;;;;;14.27;10.23;;;;;;;-139.48;100.00;61774.03;4995675;28;20041;-69
2022/04/29 02:47:06;;;;;;;14.65;9.30;;;;;;;-139.48;100.00;61774.03;4980673;28;20478;-69
2022/04/29 02:49:43;;;;;;;16.27;9.85;;;;;;;-139.48;100.00;61774.03;4995579;28;20105;-69
2022/04/29 02:52:27;;;;;;;13.05;9.68;;;;;;;-139.48;100.00;61774.03;4980617;28;20061;-69
2022/04/29 02:55:11;;;;;;;12.07;8.90;;;;;;;-139.48;100.00;61774.03;4995455;28;20057;-69
2022/04/29 02:57:54;;;;;;;12.68;9.88;;;;;;;-139.48;100.00;61774.03;4995493;28;20081;-69
2022/04/29 03:00:39;;;;;;;15.05;9.68;;;;;;;-139.48;100.00;61774.03;4980632;28;20137;-69
2022/04/29 03:03:23;;;;;;;12.02;8.63;;;;;;;-139.48;100.00;61774.03;4995428;28;20061;-69
2022/04/29 03:06:07;;;;;;;11.10;9.40;;;;;;;-139.48;100.00;61774.03;4980239;28;20076;-69
2022/04/29 03:08:51;;;;;;;11.35;8.43;;;;;;;-139.48;100.00;61774.03;4967159;28;20065;-69
2022/04/29 03:11:35;;;;;;;10.30;8.75;;;;;;;-139.48;100.00;61774.03;4966849;28;20084;-69
2022/04/29 03:14:19;;;;;;;10.27;9.13;;;;;;;-139.48;100.00;61774.03;4980474;28;20096;-69
2022/04/29 03:17:03;;;;;;;12.93;8.73;;;;;;;-139.48;100.00;61774.03;4980152;28;20101;-69
2022/04/29 03:19:47;;;;;;;13.25;9.70;;;;;;;-139.48;100.00;61774.03;4994743;28;20161;-69
2022/04/29 03:22:31;;;;;;;13.48;9.98;;;;;;;-139.48;100.00;61774.03;4979892;28;20064;-69
2022/04/29 03:25:15;;;;;;;13.82;10.00;;;;;;;-139.48;100.00;61774.03;4995202;28;20129;-69
2022/04/29 03:27:59;;;;;;;10.95;8.73;;;;;;;-139.48;100.00;61774.03;4979864;28;20069;-69
2022/04/29 03:30:43;;;;;;;13.00;9.35;;;;;;;-139.48;100.00;61774.03;4966583;28;20120;-69
2022/04/29 03:33:27;;;;;;;16.58;9.65;;;;;;;-139.48;100.00;61774.03;4980051;28;20096;-69
2022/04/29 03:36:11;;;;;;;12.98;9.32;;;;;;;-139.48;100.00;61774.03;4994730;28;20100;-69
2022/04/29 03:38:55;;;;;;;11.27;9.13;;;;;;;-139.48;100.00;61774.03;4966117;28;20053;-69
2022/04/29 03:41:38;;;;;;;11.85;9.95;;;;;;;-139.48;100.00;61774.03;4994660;28;20104;-69
2022/04/29 03:44:22;;;;;;;12.23;8.88;;;;;;;-139.48;100.00;61774.03;4979691;28;20100;-69
2022/04/29 03:47:06;;;;;;;16.55;10.13;;;;;;;-139.48;100.00;61774.03;4994413;28;20135;-69
2022/04/29 03:49:50;;;;;;;10.80;9.02;;;;;;;-139.48;100.00;61774.03;4994277;28;20041;-69
2022/04/29 03:52:34;;;;;;;14.98;10.52;;;;;;;-139.48;100.00;61774.03;4994424;28;20129;-69
2022/04/29 03:55:20;;;;;;;12.63;9.30;;;;;;;-139.48;100.00;61774.03;4979574;28;20116;-69
2022/04/29 03:58:04;;;;;;;14.43;9.68;;;;;;;-139.48;100.00;61774.03;4979663;28;20105;-69
2022/04/29 04:00:48;;;;;;;15.70;10.75;;;;;;;-139.48;100.00;61774.03;4979699;28;20405;-69
2022/04/29 04:03:32;;;;;;;14.30;9.60;;;;;;;-139.48;100.00;61774.03;4979651;28;20053;-69
2022/04/29 04:09:23;;;;;;;14.23;9.95;;;;;;;-139.48;100.00;61774.03;4994257;28;20049;-69
2022/04/29 04:12:08;;;;;;;10.93;9.65;;;;;;;-139.48;100.00;61774.03;4994297;28;20057;-69
2022/04/29 04:14:52;;;;;;;24.15;10.32;;;;;;;-139.48;100.00;61774.03;4965907;28;20124;-69
2022/04/29 04:17:36;;;;;;;14.40;10.18;;;;;;;-139.48;100.00;61774.03;4979472;28;20046;-69
2022/04/29 04:20:20;;;;;;;17.35;10.95;;;;;;;-139.48;100.00;61774.03;4979507;28;20065;-69
2022/04/29 04:23:04;;;;;;;14.32;10.30;;;;;;;-139.48;100.00;61774.03;4979257;28;20069;-69
2022/04/29 04:25:50;;;;;;;14.45;10.18;;;;;;;-139.48;100.00;61774.03;4965752;28;20089;-69
2022/04/29 04:28:34;;;;;;;14.32;10.52;;;;;;;-139.48;100.00;61774.03;4983739;28;20048;-69
2022/04/29 04:31:21;;;;;;;14.63;10.82;;;;;;;-139.48;100.00;61774.03;4985967;28;20052;-69
2022/04/29 04:34:49;;;;;;;19.10;10.80;;;;;;;-139.48;100.00;61774.03;4986248;28;20092;-69
2022/04/29 04:37:09;;;;;;;13.82;11.15;;;;;;;-139.48;100.00;61774.03;5000229;28;20049;-69
2022/04/29 04:39:54;;;;;;;15.00;11.63;;;;;;;-139.48;100.00;61774.03;4985696;28;20129;-69
2022/04/29 04:42:45;;;;;;;15.93;12.00;;;;;;;-139.48;100.00;61774.03;4985463;28;20422;-69
2022/04/29 04:45:29;;;;;;;16.92;11.05;;;;;;;-139.48;100.00;61774.03;4985697;28;20053;-69
2022/04/29 04:48:14;;;;;;;18.67;10.98;;;;;;;-139.48;100.00;61774.03;4985313;28;20061;-69
2022/04/29 04:51:01;;;;;;;20.98;12.02;;;;;;;-139.48;100.00;61774.03;5000312;28;20049;-69
2022/04/29 04:53:45;;;;;;;15.50;11.40;;;;;;;-139.48;100.00;61774.03;5000278;28;20137;-69
2022/04/29 04:56:30;;;;;;;20.23;11.82;;;;;;;-139.48;100.00;61774.03;4985463;28;20517;-69
2022/04/29 04:59:13;;;;;;;15.88;11.25;;;;;;;-139.48;100.00;61774.03;4985353;28;20182;-69
2022/04/29 05:01:58;;;;;;;14.50;11.43;;;;;;;-139.48;100.00;61774.03;4985489;28;20122;-69
2022/04/29 05:04:42;;;;;;;14.55;10.88;;;;;;;-139.48;100.00;61774.03;4999986;28;20053;-69
2022/04/29 05:07:26;;;;;;;17.17;11.43;;;;;;;-139.48;100.00;61774.03;4985552;28;20647;-69
2022/04/29 05:10:10;;;;;;;15.48;12.32;;;;;;;-139.48;100.00;61774.03;4985218;28;20056;-69
2022/04/29 05:12:55;;;;;;;15.90;12.27;;;;;;;-139.48;100.00;61774.03;4985590;28;20141;-69
2022/04/29 05:15:40;;;;;;;14.95;12.23;;;;;;;-139.48;100.00;61774.03;5000064;28;20049;-69
2022/04/29 05:18:24;;;;;;;19.38;12.63;;;;;;;-139.48;100.00;61774.03;4985549;28;20053;-69
2022/04/29 05:21:08;;;;;;;17.85;12.80;;;;;;;-139.48;100.00;61774.03;4985083;28;20533;-69
2022/04/29 05:23:52;;;;;;;19.52;12.98;;;;;;;-139.48;100.00;61774.03;4999914;28;20057;-69
2022/04/29 05:26:36;;;;;;;19.17;13.80;;;;;;;-139.48;100.00;61774.03;5000157;28;20114;-69
2022/04/29 05:29:19;;;;;;;20.45;14.65;;;;;;;-139.48;100.00;61774.03;4985274;28;20120;-69
2022/04/29 05:32:04;;;;;;;17.38;13.35;;;;;;;-139.48;100.00;61774.03;4985302;28;20517;-69
2022/04/29 05:34:48;;;;;;;18.40;13.43;;;;;;;-139.48;100.00;61774.03;4985427;28;20053;-69
2022/04/29 05:37:32;;;;;;;18.23;13.70;;;;;;;-139.48;100.00;61774.03;4999982;28;20084;-69
2022/04/29 05:43:19;;;;;;;19.90;14.40;;;;;;;-139.48;100.00;61774.03;4984505;28;20053;-69
2022/04/29 05:46:03;;;;;;;19.88;14.18;;;;;;;-139.48;100.00;61774.03;4981947;28;20049;-69
2022/04/29 05:48:47;;;;;;;20.88;14.60;;;;;;;-139.48;100.00;61774.03;4996466;28;20533;-69
2022/04/29 05:51:31;;;;;;;;;;;;;;;-139.48;100.00;61774.03;4982333;28;20104;-69
2022/04/29 05:54:15;;;;;;;19.75;14.07;;;;;;;-139.48;100.00;61774.03;4996813;28;19936;-69
2022/04/29 05:57:03;;;;;;;19.95;14.32;;;;;;;-139.48;100.00;61774.03;4996838;28;20080;-69
2022/04/29 05:59:46;;;;;;;20.33;13.80;;;;;;;-139.48;100.00;61774.03;4982181;28;20096;-69
2022/04/29 06:02:31;;;;;;;21.70;14.27;;;;;;;-139.48;100.00;61774.03;4982157;28;20509;-69
2022/04/29 06:05:15;;;;;;;25.98;14.95;;;;;;;-139.48;100.00;61774.03;4981925;28;20184;-69
2022/04/29 06:07:59;;;;;;;22.15;14.80;;;;;;;-139.48;100.00;61774.03;4996516;28;20114;-69
2022/04/29 06:10:43;;;;;;;26.13;16.65;;;;;;;-139.48;100.00;61774.03;4968525;28;20133;-69
2022/04/29 06:13:26;;;;;;;24.65;17.80;;;;;;;-139.48;100.00;61774.03;4968110;28;20108;-69
2022/04/29 06:16:11;;;;;;;22.88;16.60;;;;;;;-139.48;100.00;61774.03;4996491;28;20050;-69
2022/04/29 06:18:55;;;;;;;21.58;16.75;;;;;;;-139.48;100.00;61774.03;4981410;28;20060;-69
2022/04/29 06:21:40;;;;;;;22.77;17.60;;;;;;;-139.48;100.00;61774.03;4968008;28;20084;-69
2022/04/29 06:24:23;;;;;;;21.80;15.27;;;;;;;-139.48;100.00;61774.03;4968012;28;20134;-69
2022/04/29 06:27:07;;;;;;;23.90;16.17;;;;;;;-139.48;100.00;61774.03;4995949;28;20049;-69
2022/04/29 06:29:51;;;;;;;27.55;14.95;;;;;;;-139.48;100.00;61774.03;4995878;28;20130;-69
2022/04/29 06:32:35;;;;;;;24.08;14.15;;;;;;;-139.48;100.00;61774.03;4996182;28;20406;-69
2022/04/29 06:35:19;;;;;;;20.48;13.23;;;;;;;-139.48;100.00;61774.03;4981181;28;20425;-69
2022/04/29 06:38:03;;;;;;;18.10;13.15;;;;;;;-139.48;100.00;61774.03;4981268;28;20049;-69
2022/04/29 06:40:47;;;;;;;19.90;11.75;;;;;;;-139.48;100.00;61774.03;4995710;28;20477;-69
2022/04/29 06:43:31;;;;;;;17.55;12.20;;;;;;;-139.48;100.00;61774.03;4980999;28;20491;-69
2022/04/29 06:46:17;;;;;;;15.23;11.95;;;;;;;-139.48;100.00;61774.03;4967782;28;20122;-69
2022/04/29 06:49:01;;;;;;;12.05;10.30;;;;;;;-139.48;100.00;61774.03;4995779;28;20101;-69
2022/04/29 06:51:44;;;;;;;18.13;10.93;;;;;;;-139.48;100.00;61774.03;4995536;28;20049;-69
2022/04/29 06:54:28;;;;;;;15.43;10.73;;;;;;;-139.48;100.00;61774.03;4996116;28;20125;-69
2022/04/29 06:57:12;;;;;;;13.82;10.52;;;;;;;-139.48;100.00;61774.03;4980788;28;20112;-69
2022/04/29 06:59:57;;;;;;;14.73;10.52;;;;;;;-139.48;100.00;61774.03;4980673;28;20049;-69
2022/04/29 07:02:41;;;;;;;13.68;10.27;;;;;;;-139.48;100.00;61774.03;4980718;28;20092;-69
2022/04/29 07:05:25;;;;;;;14.25;9.68;;;;;;;-139.48;100.00;61774.03;4981020;28;20430;-69
2022/04/29 07:08:09;;;;;;;13.80;10.27;;;;;;;-139.48;100.00;61774.03;4995176;28;20053;-69
2022/04/29 07:10:55;;;;;;;16.05;10.55;;;;;;;-139.48;100.00;61774.03;4980488;28;20081;-69
2022/04/29 07:13:39;;;;;;;17.38;10.50;;;;;;;-139.48;100.00;61774.03;4995027;28;20041;-69
2022/04/29 07:16:23;;;;;;;16.55;10.90;;;;;;;-139.48;100.00;61774.03;4980270;28;20100;-69
2022/04/29 07:19:07;;;;;;;16.35;10.35;;;;;;;-139.48;100.00;61774.03;4966411;28;20049;-69
2022/04/29 07:21:51;;;;;;;13.90;10.45;;;;;;;-139.48;100.00;61774.03;4980035;28;20100;-69
2022/04/29 07:24:35;;;;;;;15.45;10.40;;;;;;;-139.48;100.00;61774.03;4995038;28;20049;-69
2022/04/29 07:27:20;;;;;;;14.32;10.85;;;;;;;-139.48;100.00;61774.03;4994779;28;20089;-69
2022/04/29 07:30:05;;;;;;;13.13;10.93;;;;;;;-139.48;100.00;61774.03;4966452;28;20049;-69
2022/04/29 07:32:49;;;;;;;11.98;9.35;;;;;;;-139.48;100.00;61774.03;4980098;28;20084;-69
2022/04/29 07:41:46;;;;;;;13.82;10.68;;;;;;;-139.48;100.00;61774.03;4994742;28;20505;-69
2022/04/29 07:44:30;;;;;;;12.43;9.73;;;;;;;-139.48;100.00;61774.03;4980513;28;20045;-69
2022/04/29 07:47:14;;;;;;;16.35;10.98;;;;;;;-139.48;100.00;61774.03;5004970;22;20104;-70
2022/04/29 07:49:58;;;;;;;14.73;11.25;;;;;;;-139.48;100.00;61774.03;4999408;28;20099;-71
2022/04/29 07:52:42;;;;;;;11.60;8.85;;;;;;;-139.48;100.00;61774.03;4999077;28;20121;-70
2022/04/29 07:55:26;;;;;;;12.88;9.57;;;;;;;-139.48;100.00;61774.03;5014452;28;20169;-70
2022/04/29 07:58:10;;;;;;;13.18;10.80;;;;;;;-139.48;100.00;61774.03;4988693;28;20092;-71
2022/04/29 08:00:55;;;;;;;13.68;9.75;;;;;;;-139.48;100.00;61774.03;4994336;28;20104;-70
2022/04/29 08:03:39;;;;;;;13.27;10.43;;;;;;;-139.48;100.00;61774.03;4993566;28;20045;-71
2022/04/29 08:06:23;;;;;;;15.30;9.88;;;;;;;-139.48;100.00;61774.03;4966077;28;20053;-71
2022/04/29 08:09:08;;;;;;;11.55;9.20;;;;;;;-139.48;100.00;61774.03;4993325;28;20565;-70
2022/04/29 08:11:53;;;;;;;14.00;9.35;;;;;;;-139.48;100.00;61774.03;4993393;28;20057;-70
2022/04/29 08:14:37;;;;;;;17.25;9.65;;;;;;;-139.48;100.00;61774.03;4993279;28;20537;-70
2022/04/29 08:17:21;;;;;;;10.95;9.02;;;;;;;-139.48;100.00;61774.03;4993171;28;20101;-71
2022/04/29 08:20:09;;;;;;;9.95;8.88;;;;;;;-139.48;100.00;61774.03;4994214;28;20414;-71
2022/04/29 08:22:53;;;;;;;12.60;9.95;;;;;;;-139.48;100.00;61774.03;4994356;28;20140;-70
2022/04/29 08:25:37;;;;;;;12.38;9.23;;;;;;;-139.48;100.00;61774.03;4979401;28;20080;-70
2022/04/29 08:28:23;;;;;;;11.07;8.98;;;;;;;-139.48;100.00;61774.03;4993746;28;20068;-71
2022/04/29 08:31:06;;;;;;;12.73;9.73;;;;;;;-139.48;100.00;61774.03;4993062;28;20049;-70
2022/04/29 08:33:50;;;;;;;13.77;9.38;;;;;;;-139.48;100.00;61774.03;4979406;28;20131;-71
2022/04/29 08:36:34;;;;;;;12.07;8.57;;;;;;;-139.48;100.00;61774.03;4993115;28;20057;-71
2022/04/29 08:39:18;;;;;;;12.10;8.15;;;;;;;-139.48;100.00;61774.03;4993994;28;20049;-70
2022/04/29 08:42:03;;;;;;;13.15;8.32;;;;;;;-139.48;100.00;61774.03;4994012;28;20049;-70
2022/04/29 08:44:48;;;;;;;11.35;8.80;;;;;;;-139.48;100.00;61774.03;4978786;28;20101;-71
2022/04/29 08:47:34;;;;;;;15.30;8.90;;;;;;;-139.48;100.00;61774.03;4992418;28;20577;-71
2022/04/29 08:50:20;;;;;;;11.50;7.90;;;;;;;-139.48;100.00;61774.03;4992891;28;20041;-70
2022/04/29 08:53:04;;;;;;;11.98;8.45;;;;;;;-139.48;100.00;61774.03;4992658;28;20049;-71
2022/04/29 08:58:53;;;;;;;11.95;8.48;;;;;;;-139.48;100.00;61774.03;4993445;28;20505;-70
2022/04/29 09:01:38;;;;;;;12.35;8.13;;;;;;;-139.48;100.00;61774.03;4993599;28;20126;-71
2022/04/29 09:04:22;;;;;;;11.65;8.48;;;;;;;-139.48;100.00;61774.03;4992891;28;20114;-71
2022/04/29 09:07:06;;;;;;;10.25;7.85;;;;;;;-139.48;100.00;61774.03;4992666;28;20061;-70
2022/04/29 09:10:04;;;;;;;11.57;7.60;;;;;;;-139.48;100.00;61774.03;4978880;28;20057;-71
2022/04/29 09:12:48;;;;;;;10.27;8.13;;;;;;;-139.48;100.00;61774.03;4992773;28;20054;-71
2022/04/29 09:15:32;;;;;;;9.57;7.85;;;;;;;-139.48;100.00;61774.03;4997406;28;20521;-70
2022/04/29 09:18:35;;;;;;;16.33;8.90;;;;;;;-139.48;100.00;61774.03;4997387;28;20046;-70
2022/04/29 09:21:24;;;;;;;10.90;8.43;;;;;;;-139.48;100.00;61774.03;4997204;28;20053;-71
2022/04/29 09:24:10;;;;;;;10.95;9.68;;;;;;;-139.48;100.00;61774.03;4997141;28;20045;-69
2022/04/29 09:26:59;;;;;;;14.18;9.00;;;;;;;-139.48;100.00;61774.03;4982150;28;20072;-70
2022/04/29 09:29:43;;;;;;;11.40;8.85;;;;;;;-139.48;100.00;61774.03;4996544;28;20054;-71
2022/04/29 09:32:48;;;;;;;15.32;8.35;;;;;;;-139.48;100.00;61774.03;4997254;28;20107;-70
2022/04/29 09:35:51;;;;;;;9.65;8.18;;;;;;;-139.48;100.00;61774.03;4996054;28;20053;-70
2022/04/29 09:41:37;;;;;;;14.15;8.90;;;;;;;-139.48;100.00;61774.03;4996962;28;20064;-71
2022/04/29 09:44:42;;;;;;;13.05;8.63;;;;;;;-139.48;100.00;61774.03;4982106;28;20049;-70
2022/04/29 09:47:26;;;;;;;14.20;8.27;;;;;;;-139.48;100.00;61774.03;4981898;28;20045;-71
2022/04/29 09:50:10;;;;;;;11.05;8.02;;;;;;;-139.48;100.00;61774.03;4995928;28;20049;-70
2022/04/29 09:52:54;;;;;;;8.20;7.03;;;;;;;-139.48;100.00;61774.03;4981970;28;20069;-70
2022/04/29 09:55:38;;;;;;;11.30;7.75;;;;;;;-139.48;100.00;61774.03;4995454;28;20101;-70
2022/04/29 09:58:23;;;;;;;9.25;7.35;;;;;;;-139.48;100.00;61774.03;4995576;28;20057;-71
2022/04/29 10:01:08;;;;;;;8.57;7.43;;;;;;;-139.48;100.00;61774.03;4995440;28;20065;-71
2022/04/29 10:03:52;;;;;;;10.98;7.53;;;;;;;-139.48;100.00;61774.03;4981797;28;20414;-70
2022/04/29 10:06:38;;;;;;;12.55;7.78;;;;;;;-139.48;100.00;61774.03;4995505;28;20048;-70
2022/04/29 10:09:25;;;;;;;12.48;7.78;;;;;;;-139.48;100.00;61774.03;4996281;28;20049;-71
2022/04/29 10:12:13;;;;;;;10.38;7.82;;;;;;;-139.48;100.00;61774.03;4995333;28;20105;-71
2022/04/29 10:14:59;;;;;;;9.75;7.22;;;;;;;-139.48;100.00;61774.03;4995468;28;20041;-71
2022/04/29 10:23:53;;;;;;;10.27;7.45;;;;;;;-139.48;100.00;61774.03;4995058;28;20505;-70
2022/04/29 10:26:36;;;;;;;10.07;7.60;;;;;;;-139.48;100.00;61774.03;4994251;28;20097;-71
2022/04/29 10:29:20;;;;;;;9.10;8.02;;;;;;;-139.48;100.00;61774.03;4981147;28;20529;-71
2022/04/29 10:32:09;;;;;;;10.98;7.57;;;;;;;-139.48;100.00;61774.03;4995151;28;20100;-71
2022/04/29 10:34:55;;;;;;;10.45;7.70;;;;;;;-139.48;100.00;61774.03;4995075;28;20534;-71
2022/04/29 10:37:39;;;;;;;12.23;8.75;;;;;;;-139.48;100.00;61774.03;4981117;28;20092;-71
2022/04/29 10:40:28;;;;;;;9.30;7.68;;;;;;;-139.48;100.00;61774.03;4994750;28;20068;-71
2022/04/29 10:43:18;;;;;;;10.60;8.10;;;;;;;-139.48;100.00;61774.03;4995785;28;20100;-70
2022/04/29 10:46:05;;;;;;;8.75;7.75;;;;;;;-139.48;100.00;61774.03;4994552;28;20045;-71
2022/04/29 10:48:53;;;;;;;10.13;8.02;;;;;;;-139.48;100.00;61774.03;4995561;28;20077;-71
2022/04/29 10:51:59;;;;;;;12.23;8.00;;;;;;;-139.48;100.00;61774.03;4994417;28;20112;-71
2022/04/29 10:54:43;;;;;;;10.88;7.70;;;;;;;-139.48;100.00;61774.03;4995663;28;20045;-71
2022/04/29 10:57:41;;;;;;;8.82;7.15;;;;;;;-139.48;100.00;61774.03;4967146;28;20103;-71
2022/04/29 11:00:25;;;;;;;12.13;7.05;;;;;;;-139.48;100.00;61774.03;4995519;28;20164;-71
2022/04/29 11:03:38;;;;;;;9.43;6.40;;;;;;;-139.48;100.00;61774.03;4980564;28;20049;-70
2022/04/29 11:06:35;;;;;;;9.13;7.03;;;;;;;-139.48;100.00;61774.03;4994481;28;20141;-71
2022/04/29 11:09:35;;;;;;;10.38;6.63;;;;;;;-139.48;100.00;61774.03;4995300;28;20089;-70
2022/04/29 11:12:33;;;;;;;11.77;6.75;;;;;;;-139.48;100.00;61774.03;4994045;28;20482;-71
2022/04/29 11:15:20;;;;;;;7.32;6.22;;;;;;;-139.48;100.00;61774.03;4994970;28;20500;-71
2022/04/29 11:18:23;;;;;;;9.20;6.13;;;;;;;-139.48;100.00;61774.03;4993671;28;20053;-71
2022/04/29 11:27:13;;;;;;;7.90;6.50;;;;;;;-139.48;100.00;61774.03;4993981;28;20045;-70
2022/04/29 11:30:01;;;;;;;6.95;5.95;;;;;;;-139.48;100.00;61774.03;4993702;28;20169;-70
2022/04/29 11:32:45;;;;;;;6.53;5.85;;;;;;;-139.48;100.00;61774.03;4993895;28;20419;-70
2022/04/29 11:35:29;;;;;;;8.43;5.30;;;;;;;-139.48;100.00;61774.03;4994956;28;20434;-70
2022/04/29 11:38:13;;;;;;;7.15;5.50;;;;;;;-139.48;100.00;61774.03;4992713;28;20045;-71
2022/04/29 11:41:00;;;;;;;5.90;5.20;;;;;;;-139.48;100.00;61774.03;4993591;28;20084;-70
2022/04/29 11:43:46;;;;;;;8.15;4.90;;;;;;;-139.48;100.00;61774.03;4993698;28;20077;-69
2022/04/29 11:46:30;;;;;;;5.60;4.80;;;;;;;-139.48;100.00;61774.03;4979919;28;20049;-70
2022/04/29 11:49:18;;;;;;;6.85;4.90;;;;;;;-139.48;100.00;61774.03;4994284;28;20073;-70
2022/04/29 11:52:31;;;;;;;6.35;4.20;;;;;;;-139.48;100.00;61774.03;4994538;28;20097;-70
2022/04/29 11:55:18;;;;;;;5.25;4.75;;;;;;;-139.48;100.00;61774.03;4979800;28;20108;-70
2022/04/29 11:58:03;;;;;;;6.30;4.85;;;;;;;-139.48;100.00;61774.03;4993515;28;20046;-70
2022/04/29 12:00:49;;;;;;;7.40;4.22;;;;;;;-139.48;100.00;61774.03;4993416;28;20530;-71
2022/04/29 12:03:33;;;;;;;4.90;4.38;;;;;;;-139.48;100.00;61774.03;4994486;28;20053;-71
2022/04/29 12:06:17;;;;;;;4.70;4.22;;;;;;;-139.48;100.00;61774.03;4994328;28;20068;-71
2022/04/29 12:09:01;;;;;;;7.40;4.22;;;;;;;-139.48;100.00;61774.03;4993361;28;20415;-71
2022/04/29 12:11:45;;;;;;;6.10;4.30;;;;;;;-139.48;100.00;61774.03;4993441;28;20505;-70
2022/04/29 12:14:29;;;;;;;5.15;4.65;;;;;;;-139.48;100.00;61774.03;4979793;28;20118;-70
2022/04/29 12:17:15;;;;;;;6.97;4.18;;;;;;;-139.48;100.00;61774.03;4994048;28;20422;-70
2022/04/29 12:20:00;;;;;;;5.57;4.63;;;;;;;-139.48;100.00;61774.03;4979371;28;20125;-69
2022/04/29 12:22:44;;;;;;;6.85;4.25;;;;;;;-139.48;100.00;61774.03;4979373;28;20096;-71
2022/04/29 12:25:33;;;;;;;8.60;4.03;;;;;;;-139.48;100.00;61774.03;4993032;28;20057;-70
2022/04/29 12:28:26;;;;;;;4.93;3.85;;;;;;;-139.48;100.00;61774.03;4979230;28;20096;-70
2022/04/29 12:37:19;;;;;;;5.80;3.50;;;;;;;-139.48;100.00;61774.03;4993114;28;20105;-70
2022/04/29 12:40:04;;;;;;;4.30;3.90;;;;;;;-139.48;100.00;61774.03;4992978;28;20477;-71
2022/04/29 12:42:48;;;;;;;6.53;4.50;;;;;;;-139.48;100.00;61774.03;4994198;28;20077;-70
2022/04/29 12:45:33;;;;;;;7.75;4.40;;;;;;;-139.48;100.00;61774.03;4992696;28;20081;-70
2022/04/29 12:48:17;;;;;;;5.28;3.70;;;;;;;-139.48;100.00;61774.03;4992746;28;20422;-70
2022/04/29 12:51:01;;;;;;;4.47;3.50;;;;;;;-139.48;100.00;61774.03;4997718;28;20133;-70
2022/04/29 12:53:45;;;;;;;6.07;3.90;;;;;;;-139.48;100.00;61774.03;4997701;28;20058;-70
2022/04/29 12:56:32;;;;;;;7.95;3.35;;;;;;;-139.48;100.00;61774.03;4983018;28;20196;-70
2022/04/29 12:59:22;;;;;;;4.70;3.70;;;;;;;-139.48;100.00;61774.03;4997353;28;20053;-70
2022/04/29 13:02:06;;;;;;;7.70;3.90;;;;;;;-139.48;100.00;61774.03;4996426;28;20525;-71